Time;durP1;ratioP1;P1;durP2;ratioP2;P2;SDS_P1;SDS_P2;PMS_P1;PMS_P2;Temp;Humidity;BMP_temperature;BMP_pressure;BME280_temperature;BME280_humidity;BME280_pressure;Samples;Min_cycle;Max_cycle;Signal;HPM_P1;HPM_P2
2023/06/22 00:01:03;;;;;;;;;;;;;;;31.43;88.44;99153.94;5019583;28;19963;-40
2023/06/22 00:03:28;;;;;;;;;;;;;;;31.68;88.74;99155.41;5019313;28;19921;-39
2023/06/22 00:05:54;;;;;;;;;;;;;;;31.81;87.65;99138.78;5018670;28;19913;-39
2023/06/22 00:08:19;;;;;;;;;;;;;;;31.66;85.20;99119.31;5017746;28;20301;-39
2023/06/22 00:10:45;;;;;;;;;;;;;;;31.89;84.52;99113.91;5019474;28;20812;-39
2023/06/22 00:13:10;;;;;;;;;;;;;;;31.84;85.88;99126.94;5019810;28;19917;-39
2023/06/22 00:15:36;;;;;;;;;;;;;;;31.97;84.62;99111.16;5019640;28;19921;-39
2023/06/22 00:18:02;;;;;;;;;;;;;;;31.96;86.10;99120.19;5021723;28;19923;-39
2023/06/22 00:20:28;;;;;;;;;;;;;;;31.76;87.25;99122.53;5022553;28;19925;-40
2023/06/22 00:22:57;;;;;;;;;;;;;;;31.66;84.55;99104.16;5023445;28;19921;-40
2023/06/22 00:25:22;;;;;;;;;;;;;;;31.65;86.16;99107.81;5023448;28;19971;-39
2023/06/22 00:27:48;;;;;;;;;;;;;;;30.73;83.45;99107.88;5021307;28;19921;-39
2023/06/22 00:30:14;;;;;;;;;;;;;;;31.15;84.84;99117.22;5022022;28;20063;-39
2023/06/22 00:32:40;;;;;;;;;;;;;;;31.53;85.65;99109.28;5023456;28;20112;-39
2023/06/22 00:35:05;;;;;;;;;;;;;;;31.14;85.35;99110.28;5020743;28;20006;-39
2023/06/22 00:37:30;;;;;;;;;;;;;;;30.87;85.76;99129.44;5022944;28;19921;-39
2023/06/22 00:39:56;;;;;;;;;;;;;;;30.87;86.73;99132.09;5023928;28;19928;-39
2023/06/22 00:42:21;;;;;;;;;;;;;;;30.38;89.09;99131.34;5023269;28;19970;-39
2023/06/22 00:44:47;;;;;;;;;;;;;;;30.90;87.58;99119.25;5022895;28;19924;-39
2023/06/22 00:47:15;;;;;;;;;;;;;;;31.25;85.88;99109.84;5023333;28;20670;-39
2023/06/22 00:49:41;;;;;;;;;;;;;;;31.27;86.43;99107.84;5020228;28;19921;-39
2023/06/22 00:52:09;;;;;;;;;;;;;;;31.06;85.92;99115.66;5021969;28;20505;-39
2023/06/22 00:54:35;;;;;;;;;;;;;;;30.32;90.67;99145.31;5023059;28;20365;-39
2023/06/22 00:57:01;;;;;;;;;;;;;;;30.79;91.54;99138.25;5021831;28;19952;-39
2023/06/22 00:59:26;;;;;;;;;;;;;;;31.04;90.62;99128.28;5022349;28;19971;-39
2023/06/22 01:01:51;;;;;;;;;;;;;;;31.02;91.25;99125.00;5021627;28;19949;-39
2023/06/22 01:04:18;;;;;;;;;;;;;;;31.23;89.08;99097.72;5021968;28;19971;-47
2023/06/22 01:06:54;;;;;;;;;;;;;;;31.23;89.72;99105.72;5022106;28;19917;-39
2023/06/22 01:09:21;;;;;;;;;;;;;;;31.11;91.21;99125.75;5020340;28;19921;-39
2023/06/22 01:11:48;;;;;;;;;;;;;;;30.40;95.20;99153.25;5021560;28;19992;-39
2023/06/22 01:14:24;;;;;;;;;;;;;;;30.40;96.49;99155.91;5022238;28;20003;-39
2023/06/22 01:16:49;;;;;;;;;;;;;;;30.21;97.10;99143.00;5021623;28;19913;-40
2023/06/22 01:19:39;;;;;;;;;;;;;;;30.87;94.24;99129.44;5020353;28;19979;-39
2023/06/22 01:22:05;;;;;;;;;;;;;;;31.05;93.70;99129.97;5020185;28;19928;-39
2023/06/22 01:24:32;;;;;;;;;;;;;;;29.89;99.68;99162.53;5021113;28;20263;-39
2023/06/22 01:27:01;;;;;;;;;;;;;;;30.96;92.95;99118.56;5004690;28;19920;-39
2023/06/22 01:29:26;;;;;;;;;;;;;;;31.01;89.69;99110.03;5021605;28;19921;-39
2023/06/22 01:31:52;;;;;;;;;;;;;;;30.55;92.29;99133.91;5022858;28;19921;-39
2023/06/22 01:34:17;;;;;;;;;;;;;;;30.73;93.42;99141.63;5020062;28;19917;-39
2023/06/22 01:36:42;;;;;;;;;;;;;;;30.50;92.78;99138.94;5022793;28;19917;-39
2023/06/22 01:39:08;;;;;;;;;;;;;;;29.32;100.00;99179.28;5020866;28;19921;-39
2023/06/22 01:41:35;;;;;;;;;;;;;;;30.03;99.05;99153.84;5020115;28;19921;-39
2023/06/22 01:44:00;;;;;;;;;;;;;;;30.26;97.60;99143.31;5019680;28;19927;-39
2023/06/22 01:46:26;;;;;;;;;;;;;;;30.28;97.43;99136.03;5022505;28;20345;-39
2023/06/22 01:48:51;;;;;;;;;;;;;;;30.08;99.29;99150.69;5020487;28;20308;-39
2023/06/22 01:51:16;;;;;;;;;;;;;;;30.57;94.41;99108.81;5020301;28;19960;-39
2023/06/22 01:53:42;;;;;;;;;;;;;;;30.72;96.80;99126.66;5020449;28;19991;-39
2023/06/22 01:56:07;;;;;;;;;;;;;;;30.69;97.25;99142.97;5022505;28;20369;-39
2023/06/22 01:58:32;;;;;;;;;;;;;;;30.85;95.50;99126.94;5020272;28;19925;-39
2023/06/22 02:01:05;;;;;;;;;;;;;;;30.84;95.01;99120.81;5021162;28;19925;-39
2023/06/22 02:03:31;;;;;;;;;;;;;;;30.41;96.05;99136.31;5019850;28;19921;-39
2023/06/22 02:05:58;;;;;;;;;;;;;;;30.23;96.30;99133.03;5019519;28;20610;-39
2023/06/22 02:08:24;;;;;;;;;;;;;;;30.60;97.81;99147.50;5020217;28;19921;-39
2023/06/22 02:10:50;;;;;;;;;;;;;;;30.64;98.23;99149.63;5019968;28;19925;-39
2023/06/22 02:13:15;;;;;;;;;;;;;;;30.58;99.06;99157.47;5020821;28;20007;-39
2023/06/22 02:15:41;;;;;;;;;;;;;;;30.67;98.79;99155.63;5018554;28;20082;-39
2023/06/22 02:18:06;;;;;;;;;;;;;;;30.59;98.00;99145.88;5020055;28;19921;-39
2023/06/22 02:20:31;;;;;;;;;;;;;;;30.63;96.16;99131.19;5002740;28;20071;-39
2023/06/22 02:22:56;;;;;;;;;;;;;;;30.64;98.16;99149.63;5021897;28;19917;-39
2023/06/22 02:25:22;;;;;;;;;;;;;;;30.25;99.99;99157.59;5019782;28;20324;-39
2023/06/22 02:27:47;;;;;;;;;;;;;;;30.69;98.73;99150.94;5019427;28;20014;-39
2023/06/22 02:30:12;;;;;;;;;;;;;;;30.68;98.42;99147.47;5019648;28;20411;-39
2023/06/22 02:32:41;;;;;;;;;;;;;;;30.52;100.00;99147.53;5021306;28;20397;-39
2023/06/22 02:35:07;;;;;;;;;;;;;;;30.57;100.00;99139.88;5018972;28;20011;-40
2023/06/22 02:37:32;;;;;;;;;;;;;;;30.69;96.15;99111.91;5020394;28;20669;-39
2023/06/22 02:39:57;;;;;;;;;;;;;;;30.53;100.00;99143.88;5019963;28;20548;-41
2023/06/22 02:42:22;;;;;;;;;;;;;;;30.50;100.00;99144.25;5021126;28;19917;-40
2023/06/22 02:44:48;;;;;;;;;;;;;;;30.57;99.87;99129.25;5020495;28;19921;-39
2023/06/22 02:47:13;;;;;;;;;;;;;;;30.59;100.00;99127.25;5020957;28;19978;-40
2023/06/22 02:49:38;;;;;;;;;;;;;;;30.50;100.00;99128.31;5018748;28;20651;-40
2023/06/22 02:52:03;;;;;;;;;;;;;;;30.52;100.00;99112.97;5020225;28;19925;-40
2023/06/22 02:54:29;;;;;;;;;;;;;;;30.57;100.00;99119.44;5020349;28;19925;-40
2023/06/22 02:56:54;;;;;;;;;;;;;;;30.39;100.00;99121.53;5020343;28;20317;-40
2023/06/22 02:59:23;;;;;;;;;;;;;;;30.38;100.00;99125.19;5019974;28;20644;-39
2023/06/22 03:01:49;;;;;;;;;;;;;;;30.44;100.00;99109.38;5016833;28;19927;-40
2023/06/22 03:04:15;;;;;;;;;;;;;;;30.39;98.65;99100.28;5017185;28;19921;-40
2023/06/22 03:06:40;;;;;;;;;;;;;;;30.31;100.00;99111.78;5019220;28;19920;-39
2023/06/22 03:09:05;;;;;;;;;;;;;;;30.21;100.00;99121.75;5019143;28;19920;-39
2023/06/22 03:11:31;;;;;;;;;;;;;;;30.24;100.00;99108.13;5020464;28;20160;-39
2023/06/22 03:13:56;;;;;;;;;;;;;;;30.31;100.00;99101.16;5019004;28;19917;-39
2023/06/22 03:16:22;;;;;;;;;;;;;;;29.41;100.00;99133.19;5020714;28;20379;-39
2023/06/22 03:18:47;;;;;;;;;;;;;;;29.71;100.00;99117.59;5018970;28;19956;-40
2023/06/22 03:21:12;;;;;;;;;;;;;;;30.06;100.00;99100.41;5019840;28;20573;-39
2023/06/22 03:23:37;;;;;;;;;;;;;;;30.39;100.00;99095.78;5019072;28;19925;-40
2023/06/22 03:26:04;;;;;;;;;;;;;;;30.43;100.00;99089.13;5021155;28;19964;-40
2023/06/22 03:28:29;;;;;;;;;;;;;;;30.30;100.00;99093.34;5019389;28;19921;-39
2023/06/22 03:30:55;;;;;;;;;;;;;;;29.65;100.00;99108.47;5020196;28;19925;-40
2023/06/22 03:33:20;;;;;;;;;;;;;;;29.38;100.00;99120.28;5018864;28;19949;-39
2023/06/22 03:35:45;;;;;;;;;;;;;;;29.86;100.00;99094.66;5020501;28;19929;-39
2023/06/22 03:38:10;;;;;;;;;;;;;;;29.56;100.00;99105.00;5018043;28;19924;-39
2023/06/22 03:40:35;;;;;;;;;;;;;;;30.02;100.00;99086.63;5019401;28;19925;-40
2023/06/22 03:43:01;;;;;;;;;;;;;;;29.73;100.00;99100.50;5019105;28;20472;-39
2023/06/22 03:45:26;;;;;;;;;;;;;;;29.87;100.00;99098.13;5018602;28;19973;-40
2023/06/22 03:47:51;;;;;;;;;;;;;;;31.09;96.83;99067.44;5018673;28;20376;-40
2023/06/22 03:50:16;;;;;;;;;;;;;;;31.55;94.96;99062.03;5017253;28;20002;-40
2023/06/22 03:52:41;;;;;;;;;;;;;;;32.06;90.42;99051.44;5018196;28;19948;-39
2023/06/22 03:55:07;;;;;;;;;;;;;;;32.33;89.38;99057.09;5018201;28;19921;-39
2023/06/22 03:57:32;;;;;;;;;;;;;;;32.30;88.92;99052.16;5020138;28;19921;-40
2023/06/22 03:59:58;;;;;;;;;;;;;;;31.16;92.80;99084.31;5016464;28;20016;-39
2023/06/22 04:02:23;;;;;;;;;;;;;;;30.39;98.46;99094.97;5016604;28;19921;-39
2023/06/22 04:04:48;;;;;;;;;;;;;;;30.70;98.35;99094.97;5018385;28;19923;-39
2023/06/22 04:07:14;;;;;;;;;;;;;;;30.66;97.71;99092.81;5019596;28;20313;-39
2023/06/22 04:09:39;;;;;;;;;;;;;;;30.39;97.39;99085.16;5018275;28;20278;-39
2023/06/22 04:12:04;;;;;;;;;;;;;;;30.57;96.97;99087.56;5019142;28;20078;-39
2023/06/22 04:14:30;;;;;;;;;;;;;;;30.55;95.25;99073.59;5018488;28;20032;-39
2023/06/22 04:16:55;;;;;;;;;;;;;;;29.70;98.55;99106.16;5018789;28;20075;-39
2023/06/22 04:19:20;;;;;;;;;;;;;;;29.59;100.00;99127.72;5019765;28;19978;-39
2023/06/22 04:21:48;;;;;;;;;;;;;;;30.03;100.00;99112.19;5018160;28;20031;-39
2023/06/22 04:24:13;;;;;;;;;;;;;;;30.15;100.00;99109.16;5019636;28;19917;-39
2023/06/22 04:26:41;;;;;;;;;;;;;;;30.06;100.00;99099.56;5019550;28;19974;-39
2023/06/22 04:29:08;;;;;;;;;;;;;;;29.99;98.91;99081.69;5019541;28;19921;-39
2023/06/22 04:31:36;;;;;;;;;;;;;;;30.30;100.00;99080.06;5017813;28;20319;-39
2023/06/22 04:34:05;;;;;;;;;;;;;;;30.35;100.00;99086.50;5018943;28;19917;-39
2023/06/22 04:36:37;;;;;;;;;;;;;;;29.33;100.00;99099.56;5018133;28;19921;-40
2023/06/22 04:39:02;;;;;;;;;;;;;;;30.36;99.72;99074.06;5020164;28;20240;-39
2023/06/22 04:41:28;;;;;;;;;;;;;;;30.41;99.54;99077.03;5019277;28;20665;-39
2023/06/22 04:43:53;;;;;;;;;;;;;;;30.52;97.76;99076.63;5018068;28;19921;-40
2023/06/22 04:46:19;;;;;;;;;;;;;;;30.37;98.99;99076.53;5018532;28;20326;-39
2023/06/22 04:48:44;;;;;;;;;;;;;;;30.30;97.93;99069.44;5017485;28;19925;-40
2023/06/22 04:51:10;;;;;;;;;;;;;;;30.35;97.71;99075.06;5018506;28;19921;-39
2023/06/22 04:53:35;;;;;;;;;;;;;;;30.42;96.70;99071.50;5018007;28;19921;-39
2023/06/22 04:56:00;;;;;;;;;;;;;;;30.50;96.81;99068.00;5017119;28;20006;-39
2023/06/22 04:58:28;;;;;;;;;;;;;;;30.45;95.83;99067.69;5017918;28;19956;-39
2023/06/22 05:00:56;;;;;;;;;;;;;;;29.46;96.82;99098.19;5018335;28;20008;-39
2023/06/22 05:03:22;;;;;;;;;;;;;;;30.15;98.59;99093.22;5016232;28;20306;-39
2023/06/22 05:05:47;;;;;;;;;;;;;;;29.61;100.00;99118.56;5019720;28;19967;-39
2023/06/22 05:08:13;;;;;;;;;;;;;;;28.02;100.00;99159.31;5018666;28;20539;-40
2023/06/22 05:10:38;;;;;;;;;;;;;;;27.50;100.00;99158.25;5019176;28;19922;-43
2023/06/22 05:13:03;;;;;;;;;;;;;;;28.53;100.00;99125.75;5017096;28;19924;-42
2023/06/22 05:15:30;;;;;;;;;;;;;;;29.25;100.00;99106.69;5019000;28;19952;-42
2023/06/22 05:17:56;;;;;;;;;;;;;;;29.75;100.00;99089.72;5017378;28;20020;-41
2023/06/22 05:20:22;;;;;;;;;;;;;;;29.79;100.00;99109.63;5019020;28;20287;-42
2023/06/22 05:22:47;;;;;;;;;;;;;;;29.96;100.00;99105.91;5020096;28;19983;-41
2023/06/22 05:25:13;;;;;;;;;;;;;;;29.66;100.00;99135.81;5019218;28;19921;-41
2023/06/22 05:27:39;;;;;;;;;;;;;;;29.81;100.00;99132.34;5019761;28;19921;-40
2023/06/22 05:30:07;;;;;;;;;;;;;;;29.02;100.00;99163.00;5021725;28;20900;-41
2023/06/22 05:32:33;;;;;;;;;;;;;;;29.64;100.00;99148.44;5018748;28;20036;-40
2023/06/22 05:34:58;;;;;;;;;;;;;;;30.85;98.49;99101.16;5018309;28;20315;-41
2023/06/22 05:37:23;;;;;;;;;;;;;;;31.03;95.14;99092.06;5021849;28;19921;-41
2023/06/22 05:39:49;;;;;;;;;;;;;;;30.28;100.00;99135.22;5020530;28;19928;-40
2023/06/22 05:42:14;;;;;;;;;;;;;;;30.02;100.00;99126.47;5019444;28;20020;-40
2023/06/22 05:44:40;;;;;;;;;;;;;;;29.70;100.00;99147.81;5018564;28;20012;-41
2023/06/22 05:47:05;;;;;;;;;;;;;;;29.16;100.00;99138.50;5019980;28;20012;-41
2023/06/22 05:49:32;;;;;;;;;;;;;;;29.74;100.00;99117.25;5016535;28;20011;-41
2023/06/22 05:51:58;;;;;;;;;;;;;;;30.13;100.00;99143.03;5017882;28;19948;-41
2023/06/22 05:54:23;;;;;;;;;;;;;;;29.92;100.00;99135.63;5020200;28;19921;-40
2023/06/22 05:56:48;;;;;;;;;;;;;;;30.31;100.00;99149.00;5021567;28;20420;-41
2023/06/22 05:59:13;;;;;;;;;;;;;;;30.38;100.00;99131.34;5019455;28;19975;-41
2023/06/22 06:01:40;;;;;;;;;;;;;;;29.58;100.00;99161.38;5017325;28;20785;-41
2023/06/22 06:04:07;;;;;;;;;;;;;;;29.41;100.00;99167.69;5017093;28;19956;-41
2023/06/22 06:06:34;;;;;;;;;;;;;;;29.12;100.00;99150.41;5018626;28;19921;-41
2023/06/22 06:09:00;;;;;;;;;;;;;;;29.24;100.00;99158.06;5020538;28;19921;-41
2023/06/22 06:11:25;;;;;;;;;;;;;;;29.20;100.00;99165.53;5016278;28;20420;-40
2023/06/22 06:13:51;;;;;;;;;;;;;;;30.03;100.00;99145.88;5017683;28;19936;-40
2023/06/22 06:16:16;;;;;;;;;;;;;;;30.18;100.00;99144.19;5018840;28;19925;-40
2023/06/22 06:18:41;;;;;;;;;;;;;;;29.99;100.00;99140.09;5019648;28;20028;-40
2023/06/22 06:21:06;;;;;;;;;;;;;;;29.46;100.00;99161.88;5020695;28;19932;-42
2023/06/22 06:23:32;;;;;;;;;;;;;;;29.74;100.00;99159.72;5019625;28;20346;-41
2023/06/22 06:25:57;;;;;;;;;;;;;;;29.87;100.00;99138.78;5020298;28;20539;-41
2023/06/22 06:28:24;;;;;;;;;;;;;;;29.89;100.00;99144.75;5019758;28;20264;-41
2023/06/22 06:30:51;;;;;;;;;;;;;;;30.19;100.00;99129.06;5021237;28;20310;-41
2023/06/22 06:33:17;;;;;;;;;;;;;;;29.83;100.00;99136.66;5021217;28;19921;-41
2023/06/22 06:35:42;;;;;;;;;;;;;;;30.08;100.00;99116.16;5020802;28;19917;-41
2023/06/22 06:38:07;;;;;;;;;;;;;;;29.76;100.00;99141.81;5020289;28;19970;-41
2023/06/22 06:40:32;;;;;;;;;;;;;;;30.18;100.00;99130.91;5020614;28;19928;-41
2023/06/22 06:42:57;;;;;;;;;;;;;;;29.68;100.00;99139.19;5020666;28;19925;-41
2023/06/22 06:45:23;;;;;;;;;;;;;;;29.22;100.00;99138.81;5018311;28;19979;-41
2023/06/22 06:47:49;;;;;;;;;;;;;;;29.17;100.00;99124.25;5020473;28;19921;-41
2023/06/22 06:50:14;;;;;;;;;;;;;;;29.77;100.00;99104.47;5019765;28;20393;-41
2023/06/22 06:52:40;;;;;;;;;;;;;;;30.57;100.00;99090.22;5019584;28;20007;-41
2023/06/22 06:55:08;;;;;;;;;;;;;;;30.10;100.00;99111.50;5019709;28;20003;-41
2023/06/22 06:57:34;;;;;;;;;;;;;;;30.62;100.00;99109.09;5019561;28;19982;-41
2023/06/22 06:59:59;;;;;;;;;;;;;;;31.15;100.00;99095.94;5018670;28;20381;-41
2023/06/22 07:02:25;;;;;;;;;;;;;;;30.92;100.00;99122.56;5018863;28;19951;-41
2023/06/22 07:04:51;;;;;;;;;;;;;;;30.87;100.00;99111.66;5018141;28;19917;-43
2023/06/22 07:07:16;;;;;;;;;;;;;;;30.23;100.00;99120.56;5020278;28;19925;-41
2023/06/22 07:09:41;;;;;;;;;;;;;;;29.81;100.00;99120.91;5017782;28;20378;-41
2023/06/22 07:12:07;;;;;;;;;;;;;;;30.02;100.00;99125.66;5019393;28;19925;-41
2023/06/22 07:14:32;;;;;;;;;;;;;;;31.25;100.00;99101.88;5019673;28;19932;-41
2023/06/22 07:16:58;;;;;;;;;;;;;;;32.83;100.00;99042.03;5019512;28;19928;-41
2023/06/22 07:19:28;;;;;;;;;;;;;;;33.46;100.00;99036.78;5019096;28;19991;-41
2023/06/22 07:21:54;;;;;;;;;;;;;;;32.05;100.00;99089.78;5020046;28;19925;-41
2023/06/22 07:24:20;;;;;;;;;;;;;;;32.56;100.00;99070.28;5019064;28;19921;-41
2023/06/22 07:26:46;;;;;;;;;;;;;;;30.20;100.00;99085.56;5018000;28;20016;-41
2023/06/22 07:29:11;;;;;;;;;;;;;;;31.05;100.00;99076.75;5019912;28;20346;-41
2023/06/22 07:31:37;;;;;;;;;;;;;;;30.77;100.00;99093.25;5018942;28;19929;-41
2023/06/22 07:34:02;;;;;;;;;;;;;;;29.82;100.00;99103.97;5018620;28;19924;-41
2023/06/22 07:36:30;;;;;;;;;;;;;;;30.60;100.00;99083.72;5019581;28;19925;-41
2023/06/22 07:38:55;;;;;;;;;;;;;;;30.32;100.00;99094.00;5019621;28;19932;-41
2023/06/22 07:41:20;;;;;;;;;;;;;;;30.71;100.00;99080.66;5018875;28;19925;-41
2023/06/22 07:43:45;;;;;;;;;;;;;;;30.42;100.00;99092.78;5017701;28;19952;-41
2023/06/22 07:46:11;;;;;;;;;;;;;;;29.95;100.00;99088.31;5019778;28;20386;-41
2023/06/22 07:48:37;;;;;;;;;;;;;;;30.34;100.00;99076.88;5018866;28;19925;-41
2023/06/22 07:51:02;;;;;;;;;;;;;;;31.65;100.00;99059.91;5019693;28;19921;-41
2023/06/22 07:53:28;;;;;;;;;;;;;;;30.59;100.00;99084.72;5019906;28;19932;-41
2023/06/22 07:55:53;;;;;;;;;;;;;;;31.39;100.00;99070.97;5017460;28;19924;-41
2023/06/22 07:58:20;;;;;;;;;;;;;;;31.02;100.00;99079.78;5017530;28;20137;-41
2023/06/22 08:00:45;;;;;;;;;;;;;;;30.26;100.00;99078.72;5019979;28;19925;-41
2023/06/22 08:03:10;;;;;;;;;;;;;;;31.02;100.00;99053.19;5018717;28;19928;-41
2023/06/22 08:05:36;;;;;;;;;;;;;;;30.15;100.00;99064.84;5017764;28;20480;-41
2023/06/22 08:08:01;;;;;;;;;;;;;;;29.22;100.00;99080.47;5017266;28;20462;-41
2023/06/22 08:10:26;;;;;;;;;;;;;;;31.96;100.00;99037.59;5019033;28;19928;-41
2023/06/22 08:12:52;;;;;;;;;;;;;;;33.64;100.00;99028.28;5018854;28;19917;-42
2023/06/22 08:15:17;;;;;;;;;;;;;;;33.77;100.00;99026.69;5018615;28;20030;-41
2023/06/22 08:17:43;;;;;;;;;;;;;;;31.98;100.00;99067.56;5015979;28;20356;-41
2023/06/22 08:20:14;;;;;;;;;;;;;;;32.72;100.00;99055.88;5015654;28;19924;-41
2023/06/22 08:22:40;;;;;;;;;;;;;;;31.96;100.00;99066.91;5018916;28;19921;-42
2023/06/22 08:25:06;;;;;;;;;;;;;;;33.98;100.00;99039.94;5018456;28;19921;-42
2023/06/22 08:27:35;;;;;;;;;;;;;;;32.16;100.00;99051.16;5016590;28;20022;-42
2023/06/22 08:30:00;;;;;;;;;;;;;;;32.21;100.00;99058.59;5018735;28;19965;-42
2023/06/22 08:32:27;;;;;;;;;;;;;;;32.24;100.00;99043.03;5018734;28;20023;-43
2023/06/22 08:34:52;;;;;;;;;;;;;;;31.61;100.00;99058.63;5018300;28;20027;-42
2023/06/22 08:37:18;;;;;;;;;;;;;;;32.00;100.00;99036.22;5018380;28;19921;-42
2023/06/22 08:39:43;;;;;;;;;;;;;;;33.26;100.00;99004.63;5000768;28;19998;-42
2023/06/22 08:42:08;;;;;;;;;;;;;;;33.85;100.00;99002.47;5018768;28;19921;-42
2023/06/22 08:44:34;;;;;;;;;;;;;;;33.81;100.00;99001.25;5021275;28;20231;-42
2023/06/22 08:46:59;;;;;;;;;;;;;;;34.01;100.00;99006.63;5022298;28;20008;-42
2023/06/22 08:49:24;;;;;;;;;;;;;;;34.20;100.00;98989.88;5022422;28;20052;-42
2023/06/22 08:51:52;;;;;;;;;;;;;;;34.68;98.80;98970.22;5021749;28;19925;-43
2023/06/22 08:54:17;;;;;;;;;;;;;;;33.86;100.00;98998.78;5020423;28;19925;-44
2023/06/22 08:56:43;;;;;;;;;;;;;;;33.41;100.00;98990.31;5022839;28;19924;-43
2023/06/22 08:59:09;;;;;;;;;;;;;;;33.20;100.00;99005.38;5022971;28;19943;-44
2023/06/22 09:01:34;;;;;;;;;;;;;;;32.30;100.00;99013.00;5021986;28;20239;-43
2023/06/22 09:03:59;;;;;;;;;;;;;;;32.64;100.00;99011.50;5019504;28;19971;-43
2023/06/22 09:06:25;;;;;;;;;;;;;;;32.66;100.00;98997.97;5021422;28;19917;-44
2023/06/22 09:08:50;;;;;;;;;;;;;;;33.04;100.00;98985.13;5022263;28;20416;-45
2023/06/22 09:11:15;;;;;;;;;;;;;;;34.72;100.00;98950.06;5023106;28;19979;-43
2023/06/22 09:13:41;;;;;;;;;;;;;;;33.78;100.00;98956.22;5019910;28;20309;-44
2023/06/22 09:16:06;;;;;;;;;;;;;;;33.47;100.00;98952.16;5020617;28;19925;-44
2023/06/22 09:18:31;;;;;;;;;;;;;;;33.92;100.00;98944.56;5020779;28;20019;-44
2023/06/22 09:20:57;;;;;;;;;;;;;;;34.25;100.00;98938.47;5021361;28;19917;-43
2023/06/22 09:23:22;;;;;;;;;;;;;;;33.61;100.00;98953.06;5021472;28;19982;-42
2023/06/22 09:25:47;;;;;;;;;;;;;;;34.25;96.60;98931.28;5021406;28;19921;-44
2023/06/22 09:28:13;;;;;;;;;;;;;;;33.38;98.56;98948.00;5023208;28;19942;-44
2023/06/22 09:30:38;;;;;;;;;;;;;;;34.75;98.78;98934.41;5022647;28;20291;-43
2023/06/22 09:33:03;;;;;;;;;;;;;;;34.00;100.00;98957.72;5022164;28;20381;-43
2023/06/22 09:35:29;;;;;;;;;;;;;;;33.46;100.00;98958.50;5019920;28;19927;-44
2023/06/22 09:37:54;;;;;;;;;;;;;;;33.29;100.00;98953.50;5020891;28;19921;-43
2023/06/22 09:40:20;;;;;;;;;;;;;;;35.73;96.20;98920.16;5020978;28;19917;-44
2023/06/22 09:42:45;;;;;;;;;;;;;;;34.92;99.78;98940.16;5021612;28;20299;-44
2023/06/22 09:45:10;;;;;;;;;;;;;;;35.22;95.44;98912.94;5021458;28;19921;-44
2023/06/22 09:47:36;;;;;;;;;;;;;;;34.27;95.60;98944.44;5021266;28;19921;-44
2023/06/22 09:50:01;;;;;;;;;;;;;;;34.67;98.41;98936.47;5020336;28;19931;-44
2023/06/22 09:52:26;;;;;;;;;;;;;;;34.99;95.96;98922.22;5019854;28;20011;-44
2023/06/22 09:54:51;;;;;;;;;;;;;;;34.83;98.25;98935.22;5020995;28;19925;-43
2023/06/22 09:57:17;;;;;;;;;;;;;;;34.91;96.77;98927.78;5021825;28;19957;-44
2023/06/22 09:59:42;;;;;;;;;;;;;;;31.64;100.00;98986.38;5022639;28;19987;-43
2023/06/22 10:02:07;;;;;;;;;;;;;;;33.13;100.00;98943.97;5020901;28;19964;-43
2023/06/22 10:04:33;;;;;;;;;;;;;;;34.53;99.79;98908.88;5019952;28;20119;-43
2023/06/22 10:06:59;;;;;;;;;;;;;;;33.90;97.75;98915.38;5020793;28;19924;-43
2023/06/22 10:09:24;;;;;;;;;;;;;;;33.59;100.00;98923.88;5021607;28;19917;-43
2023/06/22 10:11:49;;;;;;;;;;;;;;;33.94;99.51;98905.09;5020668;28;19936;-44
2023/06/22 10:14:14;;;;;;;;;;;;;;;33.77;99.76;98903.81;5021343;28;19921;-44
2023/06/22 10:16:40;;;;;;;;;;;;;;;35.59;92.28;98870.34;5021469;28;19996;-43
2023/06/22 10:19:06;;;;;;;;;;;;;;;32.92;100.00;98923.50;5021135;28;19917;-44
2023/06/22 10:21:31;;;;;;;;;;;;;;;33.51;100.00;98910.69;5020455;28;19928;-45
2023/06/22 10:23:56;;;;;;;;;;;;;;;33.19;100.00;98907.69;5020003;28;19925;-43
2023/06/22 10:26:22;;;;;;;;;;;;;;;33.08;100.00;98921.56;5020777;28;19964;-44
2023/06/22 10:28:47;;;;;;;;;;;;;;;33.63;100.00;98892.28;5021477;28;19917;-45
2023/06/22 10:31:12;;;;;;;;;;;;;;;33.25;100.00;98888.19;5021546;28;20004;-44
2023/06/22 10:33:37;;;;;;;;;;;;;;;32.99;100.00;98896.84;5018090;28;20068;-43
2023/06/22 10:36:03;;;;;;;;;;;;;;;33.54;100.00;98889.75;5020850;28;20370;-44
2023/06/22 10:38:28;;;;;;;;;;;;;;;33.31;100.00;98894.59;5021103;28;19920;-47
2023/06/22 10:40:53;;;;;;;;;;;;;;;33.41;100.00;98878.19;5020429;28;19928;-45
2023/06/22 10:43:18;;;;;;;;;;;;;;;34.19;100.00;98867.13;5021206;28;19917;-42
2023/06/22 10:45:43;;;;;;;;;;;;;;;33.08;100.00;98876.22;5015729;28;20269;-43
2023/06/22 10:48:09;;;;;;;;;;;;;;;33.06;100.00;98867.56;5018264;28;19917;-44
2023/06/22 10:50:34;;;;;;;;;;;;;;;34.77;100.00;98840.56;5021495;28;19921;-43
2023/06/22 10:52:59;;;;;;;;;;;;;;;33.04;100.00;98875.75;5021440;28;19963;-43
2023/06/22 10:55:24;;;;;;;;;;;;;;;31.67;100.00;98906.13;5020192;28;19924;-43
2023/06/22 10:57:50;;;;;;;;;;;;;;;33.94;100.00;98846.31;5019854;28;19921;-44
2023/06/22 11:00:15;;;;;;;;;;;;;;;33.49;100.00;98859.34;5017511;28;19928;-44
2023/06/22 11:02:40;;;;;;;;;;;;;;;32.46;100.00;98875.16;5019831;28;19917;-43
2023/06/22 11:05:06;;;;;;;;;;;;;;;36.55;91.21;98786.09;5019746;28;19951;-44
2023/06/22 11:07:32;;;;;;;;;;;;;;;37.37;87.54;98785.75;5021089;28;20273;-43
2023/06/22 11:09:57;;;;;;;;;;;;;;;35.18;93.84;98831.41;5020104;28;19924;-46
2023/06/22 11:12:23;;;;;;;;;;;;;;;34.33;93.40;98820.66;5019948;28;19926;-44
2023/06/22 11:14:50;;;;;;;;;;;;;;;33.51;93.86;98846.63;5017917;28;19928;-43
2023/06/22 11:17:15;;;;;;;;;;;;;;;35.30;95.04;98818.97;5019287;28;20458;-45
2023/06/22 11:19:40;;;;;;;;;;;;;;;35.61;93.36;98812.00;5020108;28;19921;-43
2023/06/22 11:22:05;;;;;;;;;;;;;;;34.51;97.49;98815.50;5018366;28;20419;-44
2023/06/22 11:24:31;;;;;;;;;;;;;;;36.53;91.36;98777.44;5019970;28;20350;-44
2023/06/22 11:26:56;;;;;;;;;;;;;;;36.67;87.95;98796.13;5019743;28;19921;-43
2023/06/22 11:29:21;;;;;;;;;;;;;;;35.86;91.17;98811.25;5021076;28;19917;-43
2023/06/22 11:31:46;;;;;;;;;;;;;;;36.42;84.38;98783.56;5019769;28;19936;-44
2023/06/22 11:34:12;;;;;;;;;;;;;;;36.86;84.31;98800.44;5018066;28;19933;-44
2023/06/22 11:36:37;;;;;;;;;;;;;;;36.15;88.84;98816.00;5020503;28;19927;-44
2023/06/22 11:39:02;;;;;;;;;;;;;;;35.85;88.21;98841.75;5020182;28;19917;-43
2023/06/22 11:41:28;;;;;;;;;;;;;;;36.03;87.53;98842.66;5017951;28;19998;-44
2023/06/22 11:43:53;;;;;;;;;;;;;;;39.01;77.84;98794.19;5019014;28;19924;-43
2023/06/22 11:46:18;;;;;;;;;;;;;;;36.92;82.44;98845.16;5019447;28;19917;-44
2023/06/22 11:48:44;;;;;;;;;;;;;;;37.47;83.74;98829.03;5019557;28;19925;-42
2023/06/22 11:51:09;;;;;;;;;;;;;;;38.39;79.68;98829.69;5018943;28;19925;-42
2023/06/22 11:53:34;;;;;;;;;;;;;;;38.27;81.30;98833.22;5019017;28;20469;-43
2023/06/22 11:56:00;;;;;;;;;;;;;;;37.64;82.58;98850.72;5018256;28;19921;-42
2023/06/22 11:58:26;;;;;;;;;;;;;;;34.83;96.41;98903.94;5019772;28;19998;-42
2023/06/22 12:00:51;;;;;;;;;;;;;;;34.89;97.71;98895.06;5018444;28;20355;-44
2023/06/22 12:03:17;;;;;;;;;;;;;;;35.67;98.14;98894.22;5019879;28;20435;-41
2023/06/22 12:05:42;;;;;;;;;;;;;;;35.78;98.17;98880.13;5019492;28;20692;-41
2023/06/22 12:08:07;;;;;;;;;;;;;;;34.33;100.00;98916.91;5018366;28;19917;-41
2023/06/22 12:10:33;;;;;;;;;;;;;;;34.85;100.00;98907.25;5018546;28;19917;-42
2023/06/22 12:12:59;;;;;;;;;;;;;;;36.18;100.00;98869.19;5020918;28;20016;-42
2023/06/22 12:15:25;;;;;;;;;;;;;;;34.88;100.00;98885.41;5021917;28;19921;-43
2023/06/22 12:17:50;;;;;;;;;;;;;;;33.89;100.00;98886.16;5021667;28;20379;-43
2023/06/22 12:20:15;;;;;;;;;;;;;;;33.81;100.00;98878.34;5022311;28;19922;-43
2023/06/22 12:22:41;;;;;;;;;;;;;;;32.27;100.00;98889.94;5022875;28;19917;-43
2023/06/22 12:25:06;;;;;;;;;;;;;;;33.56;100.00;98867.38;5023400;28;19929;-43
2023/06/22 12:27:32;;;;;;;;;;;;;;;33.29;100.00;98870.75;5024100;28;19921;-41
2023/06/22 12:29:57;;;;;;;;;;;;;;;33.95;100.00;98842.63;5021938;28;19917;-42
2023/06/22 12:32:22;;;;;;;;;;;;;;;35.19;100.00;98811.59;5022505;28;19925;-42